Time;durP1;ratioP1;P1;durP2;ratioP2;P2;SDS_P1;SDS_P2;PMS_P1;PMS_P2;Temp;Humidity;BMP_temperature;BMP_pressure;BME280_temperature;BME280_humidity;BME280_pressure;Samples;Min_cycle;Max_cycle;Signal;HPM_P1;HPM_P2
2023/08/15 00:01:17;;;;;;;10.52;7.85;;;18.70;99.90;;;;;;5020520;28;20053;-63
2023/08/15 00:03:46;;;;;;;12.25;8.10;;;18.80;99.90;;;;;;5011199;28;20041;-64
2023/08/15 00:06:13;;;;;;;14.13;9.90;;;18.70;99.90;;;;;;5017328;28;20112;-64
2023/08/15 00:08:39;;;;;;;14.60;10.57;;;18.70;99.90;;;;;;4995868;28;20087;-63
2023/08/15 00:11:04;;;;;;;18.27;11.15;;;18.70;99.90;;;;;;5013902;28;20402;-62
2023/08/15 00:13:30;;;;;;;17.58;11.07;;;18.70;99.90;;;;;;5034550;28;20036;-65
2023/08/15 00:15:56;;;;;;;16.33;11.60;;;18.70;99.90;;;;;;5044587;28;20124;-63
2023/08/15 00:18:21;;;;;;;16.15;11.18;;;18.70;99.90;;;;;;5016788;28;20035;-62
2023/08/15 00:20:48;;;;;;;16.75;11.20;;;18.70;99.90;;;;;;5006815;28;20056;-63
2023/08/15 00:23:14;;;;;;;21.10;12.02;;;18.70;99.90;;;;;;5000340;28;20033;-62
2023/08/15 00:25:40;;;;;;;14.88;10.25;;;18.70;99.90;;;;;;5031034;28;20041;-62
2023/08/15 00:28:05;;;;;;;16.85;11.20;;;18.70;99.90;;;;;;5011376;28;20045;-62
2023/08/15 00:30:32;;;;;;;17.17;10.93;;;18.70;99.90;;;;;;5023326;28;20037;-62
2023/08/15 00:32:58;;;;;;;18.10;11.13;;;18.70;99.90;;;;;;5022421;28;20041;-66
2023/08/15 00:35:24;;;;;;;16.08;11.32;;;18.70;99.90;;;;;;5007851;28;20120;-62
2023/08/15 00:37:50;;;;;;;15.68;11.27;;;18.70;99.90;;;;;;5002100;28;20041;-63
2023/08/15 00:40:16;;;;;;;15.13;10.98;;;18.70;99.90;;;;;;5021461;28;20458;-62
2023/08/15 00:42:41;;;;;;;13.80;10.65;;;18.70;99.90;;;;;;5016203;28;20038;-62
2023/08/15 00:45:07;;;;;;;18.25;11.20;;;18.70;99.90;;;;;;5031529;28;20045;-65
2023/08/15 00:47:33;;;;;;;20.00;11.48;;;18.70;99.90;;;;;;5034530;28;20041;-64
2023/08/15 00:50:00;;;;;;;16.90;11.25;;;18.80;99.90;;;;;;5008376;28;20073;-65
2023/08/15 00:52:27;;;;;;;16.48;11.65;;;18.80;99.90;;;;;;4993592;28;20042;-63
2023/08/15 00:54:54;;;;;;;17.73;12.07;;;18.80;99.90;;;;;;5041348;28;20045;-63
2023/08/15 00:57:21;;;;;;;18.75;12.05;;;18.80;99.90;;;;;;5032645;28;20510;-63
2023/08/15 00:59:47;;;;;;;16.55;11.98;;;18.80;99.90;;;;;;5036719;28;20124;-62
2023/08/15 01:02:13;;;;;;;14.07;10.98;;;18.80;99.90;;;;;;5039357;28;20407;-62
2023/08/15 01:04:40;;;;;;;18.05;11.82;;;18.80;99.90;;;;;;5012747;28;20040;-63
2023/08/15 01:07:06;;;;;;;18.60;12.57;;;18.80;99.90;;;;;;5030825;28;20041;-64
2023/08/15 01:09:31;;;;;;;18.50;12.80;;;18.80;99.90;;;;;;5030008;28;20422;-66
2023/08/15 01:12:13;;;;;;;17.45;12.70;;;18.80;99.90;;;;;;5017237;28;20048;-63
2023/08/15 01:15:05;;;;;;;;;;;18.80;99.90;;;;;;5006304;28;20179;-62
2023/08/15 01:17:46;;;;;;;17.67;13.13;;;18.80;99.90;;;;;;5023284;28;19917;-63
2023/08/15 01:20:17;;;;;;;18.35;12.60;;;18.80;99.90;;;;;;5020909;28;20798;-63
2023/08/15 01:22:46;;;;;;;19.55;13.73;;;18.80;99.90;;;;;;5005678;28;20399;-63
2023/08/15 01:25:12;;;;;;;17.73;13.25;;;18.80;99.90;;;;;;5001369;28;20095;-63
2023/08/15 01:27:38;;;;;;;16.90;12.57;;;18.80;99.90;;;;;;5025825;28;20037;-64
2023/08/15 01:30:05;;;;;;;16.15;12.65;;;18.80;99.90;;;;;;5034960;28;20068;-63
2023/08/15 01:32:42;;;;;;;18.35;12.88;;;18.80;99.90;;;;;;5033833;28;20202;-63
2023/08/15 01:35:19;;;;;;;17.02;13.25;;;18.80;99.90;;;;;;5030466;28;20033;-63
2023/08/15 01:37:50;;;;;;;20.45;13.80;;;18.80;99.90;;;;;;5034992;28;20033;-63
2023/08/15 01:40:22;;;;;;;21.30;13.45;;;18.80;99.90;;;;;;5031628;28;20076;-64
2023/08/15 01:42:50;;;;;;;18.40;13.57;;;18.80;99.90;;;;;;5028542;28;20057;-63
2023/08/15 01:45:17;;;;;;;18.35;13.05;;;18.80;99.90;;;;;;5037022;28;20171;-63
2023/08/15 01:47:43;;;;;;;18.95;13.15;;;18.80;99.90;;;;;;5018569;28;20073;-63
2023/08/15 01:50:08;;;;;;;21.90;13.00;;;18.80;99.90;;;;;;5030908;28;20122;-62
2023/08/15 01:52:35;;;;;;;19.13;14.00;;;18.80;99.90;;;;;;5034268;28;20045;-63
2023/08/15 01:55:00;;;;;;;16.38;13.27;;;18.80;99.90;;;;;;5012007;28;20332;-62
2023/08/15 01:57:26;;;;;;;19.75;13.90;;;18.90;99.90;;;;;;5025546;28;20289;-63
2023/08/15 01:59:52;;;;;;;16.48;13.40;;;18.90;99.90;;;;;;5036841;28;20479;-63
2023/08/15 02:02:17;;;;;;;16.65;13.52;;;18.90;99.90;;;;;;5031877;28;20049;-63
2023/08/15 02:04:43;;;;;;;20.20;14.52;;;18.90;99.90;;;;;;5028633;28;20037;-65
2023/08/15 02:07:09;;;;;;;19.35;14.27;;;18.90;99.90;;;;;;5042563;28;20041;-63
2023/08/15 02:09:34;;;;;;;18.33;13.70;;;18.90;99.90;;;;;;5028295;28;20115;-63
2023/08/15 02:12:00;;;;;;;19.60;14.75;;;18.90;99.90;;;;;;5034510;28;20034;-63
2023/08/15 02:14:25;;;;;;;18.10;13.52;;;18.90;99.90;;;;;;5040458;28;20480;-63
2023/08/15 02:16:51;;;;;;;19.60;14.05;;;18.90;99.90;;;;;;5035539;28;20037;-63
2023/08/15 02:19:17;;;;;;;17.38;13.23;;;18.90;99.90;;;;;;5035415;28;20348;-63
2023/08/15 02:21:42;;;;;;;18.23;14.52;;;18.90;99.90;;;;;;5035480;28;20045;-63
2023/08/15 02:24:08;;;;;;;17.50;14.20;;;18.80;99.90;;;;;;5032836;28;20446;-63
2023/08/15 02:26:35;;;;;;;19.30;14.75;;;18.80;99.90;;;;;;5036539;28;20068;-64
2023/08/15 02:29:03;;;;;;;19.42;15.25;;;18.90;99.90;;;;;;5034203;28;20041;-63
2023/08/15 02:31:30;;;;;;;22.40;14.73;;;18.90;99.90;;;;;;5028956;28;20045;-65
2023/08/15 02:33:56;;;;;;;21.88;15.10;;;18.90;99.90;;;;;;5035148;28;20037;-64
2023/08/15 02:36:21;;;;;;;21.23;16.67;;;18.90;99.90;;;;;;5031216;28;20434;-66
2023/08/15 02:38:47;;;;;;;22.75;16.42;;;18.90;99.90;;;;;;5039924;28;20096;-63
2023/08/15 02:41:13;;;;;;;25.00;15.25;;;18.90;99.90;;;;;;5033423;28;20040;-64
2023/08/15 02:43:38;;;;;;;20.85;15.80;;;18.90;99.90;;;;;;5036092;28;20514;-64
2023/08/15 02:46:04;;;;;;;23.48;14.95;;;18.90;99.90;;;;;;5036685;28;20049;-66
2023/08/15 02:48:30;;;;;;;18.92;15.23;;;18.90;99.90;;;;;;5041515;28;20387;-64
2023/08/15 02:50:55;;;;;;;23.80;16.08;;;18.90;99.90;;;;;;5028002;28;20538;-64
2023/08/15 02:53:21;;;;;;;20.77;16.95;;;18.90;99.90;;;;;;5027914;28;20030;-64
2023/08/15 02:55:51;;;;;;;22.73;16.58;;;18.90;99.90;;;;;;5008900;28;20069;-64
2023/08/15 02:58:17;;;;;;;18.92;14.65;;;18.90;99.90;;;;;;5014303;28;20114;-67
2023/08/15 03:00:43;;;;;;;22.90;17.15;;;18.90;99.90;;;;;;5033093;28;20411;-66
2023/08/15 03:03:08;;;;;;;19.25;16.70;;;18.90;99.90;;;;;;5029943;28;20079;-67
2023/08/15 03:05:37;;;;;;;22.27;16.70;;;18.80;99.90;;;;;;5040358;28;20541;-64
2023/08/15 03:08:03;;;;;;;22.08;16.67;;;18.80;99.90;;;;;;5032471;28;20039;-67
2023/08/15 03:10:29;;;;;;;25.73;16.60;;;18.80;99.90;;;;;;5030291;28;20037;-64
2023/08/15 03:12:54;;;;;;;21.10;16.63;;;18.80;99.90;;;;;;5029297;28;20044;-64
2023/08/15 03:15:20;;;;;;;21.50;16.52;;;18.80;99.90;;;;;;5036082;28;20030;-64
2023/08/15 03:17:45;;;;;;;20.27;16.65;;;18.80;99.90;;;;;;5009488;28;20034;-65
2023/08/15 03:20:12;;;;;;;20.85;17.02;;;18.90;99.90;;;;;;5039807;28;20033;-63
2023/08/15 03:22:37;;;;;;;20.15;15.88;;;18.90;99.90;;;;;;5015274;28;20045;-65
2023/08/15 03:25:03;;;;;;;19.45;16.13;;;18.90;99.90;;;;;;5035403;28;20041;-65
2023/08/15 03:27:29;;;;;;;21.27;15.75;;;18.90;99.90;;;;;;5030007;28;20045;-63
2023/08/15 03:29:55;;;;;;;20.75;15.80;;;18.90;99.90;;;;;;5036420;28;20107;-65
2023/08/15 03:32:20;;;;;;;18.55;15.88;;;18.90;99.90;;;;;;5028920;28;20029;-65
2023/08/15 03:34:46;;;;;;;19.30;14.95;;;18.90;99.90;;;;;;5033921;28;20491;-65
2023/08/15 03:37:12;;;;;;;22.45;15.63;;;18.90;99.90;;;;;;5029787;28;20159;-64
2023/08/15 03:39:37;;;;;;;19.77;15.00;;;18.90;99.90;;;;;;5030265;28;20045;-65
2023/08/15 03:42:03;;;;;;;20.50;15.38;;;18.90;99.90;;;;;;5033796;28;20040;-65
2023/08/15 03:44:29;;;;;;;20.10;15.32;;;18.90;99.90;;;;;;5042473;28;20506;-65
2023/08/15 03:46:54;;;;;;;20.52;14.93;;;18.90;99.90;;;;;;5021961;28;20048;-65
2023/08/15 03:49:20;;;;;;;18.77;14.35;;;18.90;99.90;;;;;;5037699;28;20092;-65
2023/08/15 03:51:46;;;;;;;18.88;14.30;;;18.90;99.90;;;;;;5025223;28;20091;-64
2023/08/15 03:54:11;;;;;;;20.40;14.77;;;18.90;99.90;;;;;;5023459;28;20189;-65
2023/08/15 03:56:37;;;;;;;20.52;14.18;;;18.90;99.90;;;;;;5033987;28;20038;-65
2023/08/15 03:59:03;;;;;;;19.30;14.27;;;18.90;99.90;;;;;;5037563;28;20033;-63
2023/08/15 04:01:28;;;;;;;19.20;14.05;;;18.90;99.90;;;;;;5016921;28;20041;-65
2023/08/15 04:03:55;;;;;;;22.35;14.50;;;18.90;99.90;;;;;;5027139;28;20048;-64
2023/08/15 04:06:21;;;;;;;16.90;13.77;;;19.00;99.90;;;;;;5028670;28;20045;-65
2023/08/15 04:08:47;;;;;;;20.98;14.60;;;18.90;99.90;;;;;;5028719;28;20043;-65
2023/08/15 04:11:13;;;;;;;20.70;13.68;;;18.90;99.90;;;;;;5035090;28;20126;-65
2023/08/15 04:13:39;;;;;;;17.45;13.88;;;18.90;99.90;;;;;;5030999;28;20069;-65
2023/08/15 04:16:05;;;;;;;19.70;14.60;;;18.90;99.90;;;;;;5013449;28;20053;-65
2023/08/15 04:18:30;;;;;;;22.25;15.68;;;18.90;99.90;;;;;;5037253;28;20128;-65
2023/08/15 04:20:56;;;;;;;24.48;15.63;;;18.90;99.90;;;;;;5039476;28;20561;-65
2023/08/15 04:23:22;;;;;;;24.45;16.05;;;18.90;99.90;;;;;;5038369;28;20376;-65
2023/08/15 04:25:48;;;;;;;18.92;14.48;;;18.90;99.90;;;;;;5033335;28;20038;-65
2023/08/15 04:28:13;;;;;;;19.00;15.27;;;18.90;99.90;;;;;;5032017;28;20037;-64
2023/08/15 04:30:39;;;;;;;23.73;15.50;;;18.80;99.90;;;;;;5035192;28;20475;-65
2023/08/15 04:33:04;;;;;;;20.05;15.10;;;18.80;99.90;;;;;;5038618;28;20061;-65
2023/08/15 04:35:30;;;;;;;21.02;14.80;;;18.80;99.90;;;;;;5031120;28;20097;-65
2023/08/15 04:37:56;;;;;;;22.73;14.50;;;18.80;99.90;;;;;;5044809;28;20037;-65
2023/08/15 04:40:33;;;;;;;19.42;13.90;;;18.80;99.90;;;;;;5043818;28;20092;-64
2023/08/15 04:42:59;;;;;;;17.15;12.95;;;18.70;99.90;;;;;;5006788;28;20050;-65
2023/08/15 04:45:25;;;;;;;17.13;12.25;;;18.70;99.90;;;;;;5024088;28;20407;-65
2023/08/15 04:47:51;;;;;;;19.55;12.00;;;18.70;99.90;;;;;;5010724;28;20076;-65
2023/08/15 04:50:17;;;;;;;17.85;11.32;;;18.70;99.90;;;;;;5031003;28;20045;-65
2023/08/15 04:52:43;;;;;;;15.18;10.95;;;18.60;99.90;;;;;;5020814;28;20041;-65
2023/08/15 04:55:10;;;;;;;15.80;10.45;;;18.60;99.90;;;;;;5027000;28;20033;-65
2023/08/15 04:57:37;;;;;;;16.42;10.50;;;18.60;99.90;;;;;;5010304;28;20040;-65
2023/08/15 05:00:08;;;;;;;17.55;9.90;;;18.60;99.90;;;;;;5035349;28;20033;-65
2023/08/15 05:02:35;;;;;;;13.23;8.95;;;18.60;99.90;;;;;;5022603;28;20233;-65
2023/08/15 05:05:01;;;;;;;16.13;9.63;;;18.60;99.90;;;;;;5028833;28;20048;-65
2023/08/15 05:07:30;;;;;;;16.55;9.32;;;18.60;99.90;;;;;;5007953;28;20060;-65
2023/08/15 05:09:55;;;;;;;14.85;8.95;;;18.60;99.90;;;;;;5009531;28;20041;-65
2023/08/15 05:12:21;;;;;;;13.18;9.20;;;18.50;99.90;;;;;;5010298;28;20495;-65
2023/08/15 05:14:47;;;;;;;15.05;8.73;;;18.50;99.90;;;;;;5018173;28;20052;-65
2023/08/15 05:17:12;;;;;;;14.77;8.20;;;18.50;99.90;;;;;;5032032;28;20038;-65
2023/08/15 05:19:39;;;;;;;16.48;8.57;;;18.60;99.90;;;;;;5039163;28;20034;-65
2023/08/15 05:22:04;;;;;;;11.82;7.82;;;18.50;99.90;;;;;;5030061;28;20038;-65
2023/08/15 05:24:30;;;;;;;14.95;8.30;;;18.50;99.90;;;;;;5024872;28;20511;-65
2023/08/15 05:26:56;;;;;;;14.90;7.93;;;18.50;99.90;;;;;;5010378;28;20037;-65
2023/08/15 05:29:21;;;;;;;15.48;8.07;;;18.50;99.90;;;;;;5011532;28;20389;-65
2023/08/15 05:31:47;;;;;;;13.85;7.90;;;18.50;99.90;;;;;;5024617;28;20060;-65
2023/08/15 05:34:12;;;;;;;12.75;7.60;;;18.50;99.90;;;;;;5041978;28;20506;-65
2023/08/15 05:36:38;;;;;;;13.02;7.53;;;18.50;99.90;;;;;;5024447;28;20049;-65
2023/08/15 05:39:04;;;;;;;12.30;6.85;;;18.50;99.90;;;;;;5011938;28;20044;-65
2023/08/15 05:41:31;;;;;;;13.05;6.90;;;18.50;99.90;;;;;;5025143;28;20033;-65
2023/08/15 05:43:56;;;;;;;13.07;6.68;;;18.50;99.90;;;;;;5022917;28;20084;-65
2023/08/15 05:46:22;;;;;;;14.68;7.05;;;18.50;99.90;;;;;;5036940;28;20421;-65
2023/08/15 05:48:47;;;;;;;13.07;6.97;;;18.40;99.90;;;;;;5033715;28;20040;-65
2023/08/15 05:51:13;;;;;;;11.07;6.88;;;18.40;99.90;;;;;;5019765;28;20041;-65
2023/08/15 05:53:39;;;;;;;10.02;6.60;;;18.40;99.90;;;;;;5035187;28;20113;-65
2023/08/15 05:56:04;;;;;;;13.43;6.93;;;18.40;99.90;;;;;;5015503;28;20396;-65
2023/08/15 05:58:30;;;;;;;13.40;6.95;;;18.40;99.90;;;;;;5010169;28;20116;-65
2023/08/15 06:00:56;;;;;;;11.40;6.45;;;18.40;99.90;;;;;;5012130;28;20042;-65
2023/08/15 06:03:22;;;;;;;11.85;6.55;;;18.30;99.90;;;;;;5014194;28;20488;-65
2023/08/15 06:05:47;;;;;;;10.90;6.65;;;18.30;99.90;;;;;;5046189;28;20055;-65
2023/08/15 06:08:13;;;;;;;10.50;6.78;;;18.30;99.90;;;;;;5035421;28;20036;-65
2023/08/15 06:10:38;;;;;;;10.90;6.93;;;18.30;99.90;;;;;;5041933;28;20502;-65
2023/08/15 06:13:04;;;;;;;14.00;6.80;;;18.30;99.90;;;;;;5032719;28;20040;-65
2023/08/15 06:15:30;;;;;;;14.80;7.38;;;18.30;99.90;;;;;;5029309;28;20398;-65
2023/08/15 06:17:55;;;;;;;14.07;6.95;;;18.30;99.90;;;;;;5041242;28;20722;-65
2023/08/15 06:20:21;;;;;;;12.88;6.97;;;18.30;99.90;;;;;;5021350;28;20042;-65
2023/08/15 06:22:48;;;;;;;16.13;6.80;;;18.40;99.90;;;;;;5029852;28;20050;-65
2023/08/15 06:25:13;;;;;;;13.05;6.68;;;18.40;99.90;;;;;;5021579;28;20044;-65
2023/08/15 06:27:39;;;;;;;11.05;6.28;;;18.40;99.90;;;;;;5029643;28;20048;-65
2023/08/15 06:30:05;;;;;;;12.18;6.57;;;18.40;99.90;;;;;;5029689;28;20045;-65
2023/08/15 06:32:32;;;;;;;14.65;6.88;;;18.50;99.90;;;;;;5029615;28;20077;-65
2023/08/15 06:35:00;;;;;;;21.00;6.63;;;18.40;99.90;;;;;;5015985;28;20045;-65
2023/08/15 06:37:26;;;;;;;13.93;5.80;;;18.40;99.90;;;;;;5021095;28;20072;-65
2023/08/15 06:39:52;;;;;;;10.32;5.72;;;18.50;99.90;;;;;;5013124;28;20041;-65
2023/08/15 06:42:17;;;;;;;11.68;5.82;;;18.50;99.90;;;;;;5020736;28;20052;-65
2023/08/15 06:44:43;;;;;;;11.40;6.22;;;18.50;99.90;;;;;;5033094;28;20496;-65
2023/08/15 06:47:10;;;;;;;13.25;5.80;;;18.50;99.90;;;;;;5044076;28;20041;-65
2023/08/15 06:49:35;;;;;;;12.82;6.10;;;18.60;99.90;;;;;;5020845;28;20099;-65
2023/08/15 06:52:01;;;;;;;11.75;5.32;;;18.60;99.90;;;;;;5003928;28;20120;-65
2023/08/15 06:54:27;;;;;;;12.38;5.38;;;18.60;99.90;;;;;;5038581;28;20305;-65
2023/08/15 06:56:52;;;;;;;16.85;6.20;;;18.70;99.90;;;;;;5014732;28;20213;-65
2023/08/15 06:59:20;;;;;;;15.23;5.60;;;18.80;99.90;;;;;;5039793;28;20166;-65
2023/08/15 07:01:45;;;;;;;14.27;6.10;;;18.80;99.90;;;;;;5012183;28;20480;-65
2023/08/15 07:04:11;;;;;;;13.75;5.38;;;18.90;99.90;;;;;;5026823;28;20046;-65
2023/08/15 07:06:37;;;;;;;12.35;4.78;;;18.90;99.90;;;;;;5013983;28;20055;-65
2023/08/15 07:09:06;;;;;;;17.23;5.70;;;19.00;99.90;;;;;;5022050;28;20030;-65
2023/08/15 07:11:32;;;;;;;14.15;5.60;;;19.00;99.90;;;;;;5013860;28;20045;-65
2023/08/15 07:13:57;;;;;;;16.42;5.53;;;19.00;99.90;;;;;;5017944;28;20038;-65
2023/08/15 07:16:23;;;;;;;20.45;6.47;;;19.10;99.90;;;;;;5033489;28;20063;-65
2023/08/15 07:18:49;;;;;;;13.45;6.05;;;19.10;99.90;;;;;;5025766;28;20038;-65
2023/08/15 07:21:15;;;;;;;19.52;6.10;;;19.20;99.90;;;;;;5040036;28;20565;-65
2023/08/15 07:23:40;;;;;;;14.68;6.72;;;19.30;99.90;;;;;;5013714;28;20045;-65
2023/08/15 07:26:06;;;;;;;15.88;6.60;;;19.40;99.90;;;;;;5018424;28;20076;-65
2023/08/15 07:28:31;;;;;;;12.45;7.07;;;19.50;99.90;;;;;;5011030;28;20064;-65
2023/08/15 07:30:57;;;;;;;19.77;7.60;;;19.60;99.90;;;;;;5033782;28;20036;-65
2023/08/15 07:33:23;;;;;;;13.55;8.02;;;19.70;99.90;;;;;;5009110;28;20048;-65
2023/08/15 07:35:49;;;;;;;16.92;8.60;;;19.70;99.90;;;;;;5027788;28;20033;-65
2023/08/15 07:38:14;;;;;;;11.90;7.05;;;19.80;99.90;;;;;;5031764;28;20046;-65
2023/08/15 07:40:41;;;;;;;18.55;8.82;;;19.90;99.90;;;;;;5016348;28;20053;-65
2023/08/15 07:43:06;;;;;;;19.83;8.70;;;20.00;99.90;;;;;;5030478;28;20037;-65
2023/08/15 07:45:32;;;;;;;14.85;7.38;;;19.90;99.90;;;;;;5021230;28;20052;-65
2023/08/15 07:47:58;;;;;;;13.38;8.75;;;19.90;99.90;;;;;;5017628;28;20120;-65
2023/08/15 07:50:26;;;;;;;24.02;9.55;;;19.90;99.90;;;;;;5015024;28;20047;-65
2023/08/15 07:52:53;;;;;;;19.45;9.52;;;19.80;99.90;;;;;;5031379;28;20113;-65
2023/08/15 07:55:20;;;;;;;14.13;9.05;;;20.00;99.90;;;;;;5042806;28;20033;-65
2023/08/15 07:57:46;;;;;;;16.17;9.63;;;20.10;99.90;;;;;;5006630;28;20503;-65
2023/08/15 08:00:14;;;;;;;16.42;9.90;;;20.10;99.90;;;;;;5033961;28;20099;-65
2023/08/15 08:02:44;;;;;;;13.88;8.60;;;20.20;99.90;;;;;;5010792;28;20087;-65
2023/08/15 08:05:10;;;;;;;16.20;8.70;;;20.20;99.90;;;;;;5027745;28;20159;-65
2023/08/15 08:07:36;;;;;;;14.43;7.32;;;20.10;99.90;;;;;;5005830;28;20117;-65
2023/08/15 08:10:02;;;;;;;17.52;7.88;;;20.10;99.90;;;;;;5012085;28;20048;-65
2023/08/15 08:12:29;;;;;;;12.10;7.78;;;20.10;99.90;;;;;;5040115;28;20117;-65
2023/08/15 08:14:54;;;;;;;12.93;8.20;;;20.00;99.90;;;;;;5031027;28;20115;-65
2023/08/15 08:17:21;;;;;;;13.15;7.32;;;20.00;99.90;;;;;;5015409;28;20164;-65
2023/08/15 08:19:46;;;;;;;12.60;7.60;;;20.00;99.90;;;;;;5018101;28;20049;-65
2023/08/15 08:22:12;;;;;;;15.88;7.68;;;20.10;99.90;;;;;;5009231;28;20041;-65
2023/08/15 08:24:37;;;;;;;14.95;7.32;;;20.20;99.90;;;;;;5010348;28;20498;-65
2023/08/15 08:27:04;;;;;;;13.70;6.90;;;20.30;99.90;;;;;;5027498;28;20088;-65
2023/08/15 08:29:30;;;;;;;10.80;6.90;;;20.40;99.90;;;;;;5011656;28;20049;-65
2023/08/15 08:31:55;;;;;;;9.80;6.85;;;20.50;99.90;;;;;;5032959;28;20044;-65
2023/08/15 08:34:21;;;;;;;13.32;7.07;;;20.50;99.90;;;;;;5012086;28;20034;-65
2023/08/15 08:36:47;;;;;;;11.10;6.70;;;20.60;99.90;;;;;;5020905;28;20120;-65
2023/08/15 08:39:12;;;;;;;12.23;6.40;;;20.60;99.90;;;;;;5012039;28;20160;-65
2023/08/15 08:41:39;;;;;;;11.05;6.00;;;20.70;99.90;;;;;;5027410;28;20044;-65
2023/08/15 08:44:05;;;;;;;12.82;5.95;;;20.80;99.90;;;;;;5009284;28;20041;-65
2023/08/15 08:46:31;;;;;;;;;;;20.90;99.90;;;;;;5012910;28;20037;-65
2023/08/15 08:48:58;;;;;;;9.10;4.60;;;21.00;99.90;;;;;;5020885;28;19931;-65
2023/08/15 08:51:27;;;;;;;12.13;4.70;;;21.10;99.90;;;;;;5026079;28;20068;-65
2023/08/15 08:53:54;;;;;;;10.05;4.43;;;21.20;99.90;;;;;;5006665;28;20040;-65
2023/08/15 08:56:24;;;;;;;10.07;4.57;;;21.40;99.90;;;;;;5005778;28;20091;-65
2023/08/15 08:58:53;;;;;;;10.73;4.25;;;21.50;99.90;;;;;;5027195;28;20476;-65
2023/08/15 09:01:19;;;;;;;;;;;21.70;99.90;;;;;;5009379;28;20170;-65
2023/08/15 09:03:45;;;;;;;8.20;4.13;;;22.00;99.90;;;;;;5028411;28;20016;-65
2023/08/15 09:06:11;;;;;;;8.75;3.83;;;22.10;99.90;;;;;;5013265;28;20045;-65
2023/08/15 09:08:37;;;;;;;10.23;3.75;;;22.10;99.90;;;;;;5033445;28;20045;-65
2023/08/15 09:11:02;;;;;;;8.05;3.35;;;22.20;99.90;;;;;;5033219;28;20090;-65
2023/08/15 09:13:28;;;;;;;10.65;3.30;;;22.30;99.90;;;;;;5023798;28;20124;-65
2023/08/15 09:15:58;;;;;;;8.80;2.97;;;22.40;99.90;;;;;;5026098;28;20044;-65
2023/08/15 09:18:26;;;;;;;8.77;3.08;;;22.30;99.90;;;;;;5000885;28;20041;-65
2023/08/15 09:20:52;;;;;;;9.18;3.53;;;22.40;99.90;;;;;;5008051;28;20049;-66
2023/08/15 09:23:18;;;;;;;9.25;3.30;;;22.40;99.90;;;;;;5008449;28;20048;-65
2023/08/15 09:25:44;;;;;;;6.80;3.28;;;22.30;99.90;;;;;;5020683;28;20506;-65
2023/08/15 09:28:09;;;;;;;10.95;3.08;;;22.20;99.90;;;;;;5027135;28;20480;-65
2023/08/15 09:30:36;;;;;;;10.55;2.88;;;22.10;99.90;;;;;;5003708;28;20037;-65
2023/08/15 09:33:03;;;;;;;12.90;3.38;;;22.10;99.90;;;;;;5000490;28;20045;-65
2023/08/15 09:35:32;;;;;;;6.60;3.08;;;22.00;99.90;;;;;;5021320;28;20052;-65
2023/08/15 09:38:05;;;;;;;8.55;3.33;;;21.90;99.90;;;;;;5032968;28;20479;-65
2023/08/15 09:40:31;;;;;;;8.27;3.20;;;22.00;99.90;;;;;;5024128;28;20048;-65
2023/08/15 09:42:57;;;;;;;9.90;3.25;;;22.20;99.90;;;;;;5018828;28;20069;-65
2023/08/15 09:45:24;;;;;;;7.40;2.60;;;22.40;99.90;;;;;;4996349;28;20061;-65
2023/08/15 09:47:50;;;;;;;8.10;2.85;;;22.60;99.90;;;;;;5036958;28;20041;-65
2023/08/15 09:50:16;;;;;;;8.68;2.92;;;22.80;99.90;;;;;;5007399;28;20409;-65
2023/08/15 09:52:44;;;;;;;7.93;3.00;;;23.00;99.90;;;;;;5028147;28;20227;-65
2023/08/15 09:55:11;;;;;;;9.07;3.03;;;23.10;99.90;;;;;;5013005;28;20041;-65
2023/08/15 09:57:38;;;;;;;7.07;2.70;;;23.10;99.90;;;;;;5004245;28;20048;-65
2023/08/15 10:00:05;;;;;;;8.70;3.20;;;23.10;99.90;;;;;;5033801;28;20041;-65
2023/08/15 10:02:31;;;;;;;7.78;3.05;;;23.00;99.90;;;;;;5012245;28;20057;-65
2023/08/15 10:05:02;;;;;;;9.48;3.40;;;23.00;99.90;;;;;;5015473;28;20057;-65
2023/08/15 10:07:31;;;;;;;8.83;4.10;;;23.00;99.90;;;;;;5015374;28;20049;-65
2023/08/15 10:09:59;;;;;;;7.07;3.38;;;23.00;99.90;;;;;;5023043;28;20334;-65
2023/08/15 10:12:26;;;;;;;8.00;3.13;;;23.10;99.90;;;;;;5034176;28;20048;-65
2023/08/15 10:14:55;;;;;;;8.32;3.58;;;23.10;99.90;;;;;;5032639;28;20029;-65
2023/08/15 10:17:20;;;;;;;7.22;3.35;;;23.40;99.90;;;;;;5008464;28;20302;-65
2023/08/15 10:19:48;;;;;;;10.15;3.70;;;23.60;99.90;;;;;;5014465;28;20475;-65
2023/08/15 10:22:21;;;;;;;7.90;3.20;;;23.80;99.90;;;;;;5030269;28;20030;-65
2023/08/15 10:24:48;;;;;;;11.35;3.20;;;23.90;99.90;;;;;;5026389;28;20486;-65
2023/08/15 10:27:14;;;;;;;10.05;3.15;;;23.90;99.90;;;;;;5009585;28;20048;-65
2023/08/15 10:29:57;;;;;;;5.70;2.58;;;24.00;99.90;;;;;;5006473;28;20053;-65
2023/08/15 10:32:25;;;;;;;8.93;3.20;;;24.00;99.90;;;;;;5016929;28;20050;-65
2023/08/15 10:35:05;;;;;;;8.38;2.97;;;23.90;99.90;;;;;;5008031;28;20037;-65
2023/08/15 10:37:36;;;;;;;9.50;3.03;;;23.80;99.90;;;;;;5015914;28;20040;-66
2023/08/15 10:40:12;;;;;;;;;;;23.70;99.90;;;;;;5014754;28;20056;-65
2023/08/15 10:43:02;;;;;;;7.47;2.60;;;23.60;99.90;;;;;;5020942;28;19924;-65
2023/08/15 10:45:31;;;;;;;11.40;3.33;;;23.50;99.90;;;;;;5042669;28;20124;-65
2023/08/15 10:47:59;;;;;;;8.32;3.05;;;23.30;99.90;;;;;;5034029;28;20041;-66
2023/08/15 10:50:25;;;;;;;10.30;2.83;;;23.20;99.90;;;;;;5028177;28;20050;-65
2023/08/15 10:53:06;;;;;;;11.05;3.53;;;23.10;99.90;;;;;;5023585;28;20434;-65
2023/08/15 10:55:37;;;;;;;9.55;3.33;;;23.00;99.90;;;;;;4997271;28;20393;-65
2023/08/15 10:58:11;;;;;;;11.87;3.57;;;23.00;99.90;;;;;;5015743;28;20440;-65
2023/08/15 11:00:39;;;;;;;10.57;3.60;;;23.10;99.90;;;;;;5006071;28;20231;-65
2023/08/15 11:03:06;;;;;;;8.27;3.88;;;23.20;99.90;;;;;;5019231;28;20053;-65
2023/08/15 11:05:32;;;;;;;6.95;3.75;;;23.30;99.90;;;;;;5007856;28;20045;-65
2023/08/15 11:08:14;;;;;;;12.70;4.22;;;23.40;99.90;;;;;;5028254;28;20044;-66
2023/08/15 11:10:48;;;;;;;9.57;4.03;;;23.50;99.90;;;;;;5020063;28;20970;-65
2023/08/15 11:13:17;;;;;;;10.13;3.70;;;23.60;99.90;;;;;;4993279;28;20377;-65
2023/08/15 11:15:46;;;;;;;9.02;3.47;;;23.60;99.90;;;;;;5003866;28;20147;-65
2023/08/15 11:18:22;;;;;;;13.35;3.85;;;23.70;99.90;;;;;;5030116;28;20045;-65
2023/08/15 11:20:48;;;;;;;9.25;3.70;;;23.70;99.90;;;;;;5020875;28;20120;-65
2023/08/15 11:23:15;;;;;;;9.15;3.67;;;23.80;99.90;;;;;;5017226;28;20037;-65
2023/08/15 11:25:40;;;;;;;9.65;4.10;;;23.90;99.90;;;;;;5028553;28;20044;-65
2023/08/15 11:28:06;;;;;;;9.40;4.32;;;24.00;99.90;;;;;;5010781;28;20480;-65
2023/08/15 11:30:33;;;;;;;9.68;4.68;;;24.10;99.90;;;;;;5005634;28;20042;-65
2023/08/15 11:32:59;;;;;;;11.18;3.92;;;24.20;99.90;;;;;;5032162;28;20038;-65
2023/08/15 11:35:25;;;;;;;12.15;4.28;;;24.40;99.90;;;;;;5019212;28;20507;-65
2023/08/15 11:37:51;;;;;;;9.35;4.15;;;24.60;99.90;;;;;;5004906;28;20048;-65
2023/08/15 11:40:28;;;;;;;;;;;24.80;99.90;;;;;;5012220;28;20107;-65
2023/08/15 11:42:54;;;;;;;9.57;3.70;;;25.10;99.90;;;;;;5005403;28;19925;-66
2023/08/15 11:45:23;;;;;;;10.30;3.28;;;25.20;99.90;;;;;;5010507;28;20034;-65
2023/08/15 11:48:03;;;;;;;7.53;3.58;;;25.20;99.90;;;;;;5015514;28;20041;-65
2023/08/15 11:50:33;;;;;;;8.35;3.65;;;25.20;99.90;;;;;;5011018;28;20038;-65
2023/08/15 11:52:59;;;;;;;;;;;25.40;99.90;;;;;;5009227;28;20038;-65
2023/08/15 11:55:31;;;;;;;8.68;4.07;;;25.60;99.90;;;;;;5013895;28;19918;-65
2023/08/15 11:57:57;;;;;;;;;;;25.80;99.90;;;;;;4998900;28;20543;-65
2023/08/15 12:00:22;;;;;;;8.07;4.50;;;26.10;99.90;;;;;;5003904;28;20016;-65
2023/08/15 12:02:49;;;;;;;7.95;3.90;;;26.30;99.90;;;;;;5011380;28;20050;-65
2023/08/15 12:05:17;;;;;;;8.93;4.43;;;26.40;99.90;;;;;;5020934;28;20136;-65
2023/08/15 12:07:44;;;;;;;10.57;4.78;;;26.30;99.90;;;;;;5008296;28;20443;-64
2023/08/15 12:10:12;;;;;;;11.90;4.43;;;26.10;99.90;;;;;;5013369;28;20031;-64
2023/08/15 12:12:45;;;;;;;8.70;3.80;;;25.90;99.90;;;;;;5006257;28;20041;-63
2023/08/15 12:15:13;;;;;;;9.75;3.35;;;25.60;99.90;;;;;;4995341;28;20081;-65
2023/08/15 12:17:39;;;;;;;7.65;2.92;;;25.40;99.90;;;;;;5005691;28;20104;-66
2023/08/15 12:20:07;;;;;;;8.13;3.00;;;25.30;99.90;;;;;;5002609;28;20038;-65
2023/08/15 12:22:33;;;;;;;7.30;3.03;;;25.30;99.90;;;;;;5007106;28;20084;-65
2023/08/15 12:25:00;;;;;;;7.72;3.35;;;25.20;99.90;;;;;;5010849;28;20033;-65
2023/08/15 12:27:26;;;;;;;9.20;3.97;;;25.20;99.90;;;;;;5019202;28;20058;-66
2023/08/15 12:29:51;;;;;;;8.45;4.13;;;25.10;99.90;;;;;;5010498;28;20168;-65
2023/08/15 12:32:18;;;;;;;8.75;3.90;;;25.10;99.90;;;;;;5014087;28;20487;-65
2023/08/15 12:34:43;;;;;;;7.32;3.50;;;25.30;99.90;;;;;;5022531;28;20042;-65
2023/08/15 12:37:09;;;;;;;8.45;4.10;;;25.50;99.90;;;;;;5015256;28;20034;-65